createdAt,value
2023-01-13T00:01:00.767Z,45.20
2023-01-13T00:03:28.756Z,45.10
2023-01-13T00:05:56.694Z,45.20
2023-01-13T00:08:26.015Z,45.20
2023-01-13T00:10:54.008Z,45.20
2023-01-13T00:13:26.543Z,45.20
2023-01-13T00:15:58.063Z,45.20
2023-01-13T00:18:26.202Z,45.30
2023-01-13T00:21:00.319Z,45.20
2023-01-13T00:23:29.983Z,45.30
2023-01-13T00:25:57.984Z,45.30
2023-01-13T00:28:26.901Z,45.20
2023-01-13T00:30:56.349Z,45.30
2023-01-13T00:33:24.372Z,45.20
2023-01-13T00:35:57.544Z,45.20
2023-01-13T00:38:25.526Z,45.30
2023-01-13T00:40:58.464Z,45.30
2023-01-13T00:43:25.737Z,45.30
2023-01-13T00:45:53.967Z,45.30
2023-01-13T00:48:22.123Z,45.30
2023-01-13T00:50:56.138Z,45.40
2023-01-13T00:53:24.110Z,45.30
2023-01-13T00:55:54.370Z,45.40
2023-01-13T00:58:23.781Z,45.30
2023-01-13T01:00:51.887Z,45.30
2023-01-13T01:03:19.901Z,45.30
2023-01-13T01:05:48.228Z,45.30
2023-01-13T01:08:16.228Z,45.40
2023-01-13T01:10:44.156Z,45.30
2023-01-13T01:13:17.076Z,46.00
2023-01-13T01:15:47.758Z,45.40
2023-01-13T01:18:15.719Z,45.40
2023-01-13T01:20:43.681Z,45.30
2023-01-13T01:23:11.658Z,45.60
2023-01-13T01:25:39.600Z,45.40
2023-01-13T01:28:07.541Z,45.40
2023-01-13T01:30:35.500Z,45.50
2023-01-13T01:33:05.318Z,45.40
2023-01-13T01:35:33.258Z,45.40
2023-01-13T01:38:01.208Z,45.40
2023-01-13T01:40:29.166Z,45.40
2023-01-13T01:43:14.791Z,45.40
2023-01-13T01:45:42.772Z,45.50
2023-01-13T01:48:12.060Z,45.40
2023-01-13T01:50:40.059Z,45.40
2023-01-13T01:53:10.291Z,45.40
2023-01-13T01:55:38.238Z,45.50
2023-01-13T01:58:08.880Z,45.50
2023-01-13T02:00:36.824Z,45.40
2023-01-13T02:03:05.211Z,45.50
2023-01-13T02:05:35.359Z,45.40
2023-01-13T02:08:03.286Z,46.00
2023-01-13T02:10:32.161Z,45.40
2023-01-13T02:13:00.367Z,45.40
2023-01-13T02:15:30.608Z,45.40
2023-01-13T02:18:15.796Z,45.30
2023-01-13T02:21:02.690Z,45.30
2023-01-13T02:24:25.563Z,45.40
2023-01-13T02:27:26.910Z,45.40
2023-01-13T02:30:26.602Z,45.40
2023-01-13T02:33:09.612Z,45.40
2023-01-13T02:35:40.726Z,45.40
2023-01-13T02:38:08.856Z,45.40
2023-01-13T02:40:39.279Z,45.40
2023-01-13T02:43:26.969Z,45.40
2023-01-13T02:45:58.273Z,45.40
2023-01-13T02:48:26.266Z,45.40
2023-01-13T02:50:56.972Z,45.30
2023-01-13T02:53:27.736Z,45.40
2023-01-13T02:55:55.659Z,45.30
2023-01-13T02:58:25.637Z,45.40
2023-01-13T03:00:53.653Z,45.30
2023-01-13T03:03:23.064Z,45.30
2023-01-13T03:05:52.668Z,45.30
2023-01-13T03:08:27.375Z,45.30
2023-01-13T03:11:01.162Z,45.30
2023-01-13T03:13:55.252Z,45.30
2023-01-13T03:16:30.009Z,45.40
2023-01-13T03:19:07.299Z,45.30
2023-01-13T03:21:39.524Z,45.40
2023-01-13T03:24:08.760Z,45.30
2023-01-13T03:26:39.630Z,45.40
2023-01-13T03:29:10.274Z,45.30
2023-01-13T03:31:41.639Z,45.30
2023-01-13T03:34:12.697Z,45.20
2023-01-13T03:36:40.669Z,45.20
2023-01-13T03:39:10.402Z,45.20
2023-01-13T03:41:39.963Z,45.30
2023-01-13T03:44:24.675Z,45.30
2023-01-13T03:46:59.284Z,45.30
2023-01-13T03:49:30.638Z,45.30
2023-01-13T03:51:59.766Z,45.30
2023-01-13T03:54:28.840Z,45.30
2023-01-13T03:56:58.345Z,45.30
2023-01-13T03:59:29.143Z,45.30
2023-01-13T04:02:01.322Z,45.30
2023-01-13T04:04:32.014Z,45.30
2023-01-13T04:07:03.338Z,45.30
2023-01-13T04:09:32.312Z,45.30
2023-01-13T04:12:02.836Z,45.20
2023-01-13T04:14:30.883Z,45.30
2023-01-13T04:16:58.866Z,45.20
2023-01-13T04:19:26.847Z,45.20
2023-01-13T04:21:56.274Z,45.30
2023-01-13T04:24:24.226Z,45.30
2023-01-13T04:26:52.219Z,45.30
2023-01-13T04:29:20.178Z,45.80
2023-01-13T04:31:48.138Z,45.20
2023-01-13T04:34:16.127Z,45.20
2023-01-13T04:36:45.053Z,45.20
2023-01-13T04:39:14.413Z,45.20
2023-01-13T04:42:01.351Z,45.20
2023-01-13T04:44:30.446Z,45.20
2023-01-13T04:46:59.423Z,45.20
2023-01-13T04:49:27.386Z,45.20
2023-01-13T04:51:55.369Z,45.20
2023-01-13T04:54:24.644Z,45.30
2023-01-13T04:56:52.611Z,45.30
2023-01-13T04:59:20.569Z,45.60
2023-01-13T05:01:48.651Z,45.20
2023-01-13T05:04:17.158Z,45.20
2023-01-13T05:06:45.298Z,45.20
2023-01-13T05:09:15.612Z,45.20
2023-01-13T05:12:02.605Z,45.20
2023-01-13T05:14:47.753Z,45.20
2023-01-13T05:17:18.757Z,45.20
2023-01-13T05:19:46.871Z,45.20
2023-01-13T05:22:47.152Z,45.20
2023-01-13T05:25:25.131Z,45.30
2023-01-13T05:27:55.177Z,45.90
2023-01-13T05:30:23.615Z,45.80
2023-01-13T05:32:51.572Z,45.90
2023-01-13T05:35:19.673Z,45.20
2023-01-13T05:37:47.679Z,45.20
2023-01-13T05:40:33.543Z,45.30
2023-01-13T05:43:22.297Z,45.20
2023-01-13T05:45:51.197Z,45.30
2023-01-13T05:48:19.721Z,45.30
2023-01-13T05:50:49.187Z,45.30
2023-01-13T05:53:17.484Z,45.30
2023-01-13T05:55:45.590Z,45.30
2023-01-13T05:58:15.617Z,45.30
2023-01-13T06:00:43.659Z,45.30
2023-01-13T06:03:11.833Z,45.20
2023-01-13T06:05:40.042Z,45.20
2023-01-13T06:08:08.679Z,45.20
2023-01-13T06:10:36.843Z,45.20
2023-01-13T06:13:05.113Z,45.20
2023-01-13T06:15:34.459Z,45.90
2023-01-13T06:18:04.056Z,45.20
2023-01-13T06:20:32.089Z,45.20
2023-01-13T06:23:00.257Z,45.20
2023-01-13T06:25:33.321Z,45.30
2023-01-13T06:28:01.444Z,45.20
2023-01-13T06:30:30.830Z,45.20
2023-01-13T06:33:00.677Z,45.20
2023-01-13T06:35:30.018Z,45.20
2023-01-13T06:37:58.079Z,45.30
2023-01-13T06:40:26.044Z,45.30
2023-01-13T06:43:13.272Z,45.30
2023-01-13T06:45:44.548Z,45.30
2023-01-13T06:48:13.917Z,45.30
2023-01-13T06:50:42.365Z,46.00
2023-01-13T06:53:10.409Z,45.30
2023-01-13T06:55:38.446Z,45.30
2023-01-13T06:58:06.396Z,45.30
2023-01-13T07:00:36.452Z,45.30
2023-01-13T07:03:11.818Z,45.30
2023-01-13T07:05:41.436Z,45.30
2023-01-13T07:08:09.614Z,45.20
2023-01-13T07:10:38.003Z,45.20
2023-01-13T07:13:23.723Z,45.30
2023-01-13T07:15:56.179Z,45.20
2023-01-13T07:18:24.381Z,45.20
2023-01-13T07:20:57.480Z,45.20
2023-01-13T07:23:25.565Z,45.20
2023-01-13T07:25:55.464Z,45.20
2023-01-13T07:28:23.633Z,45.20
2023-01-13T07:30:51.652Z,45.20
2023-01-13T07:33:19.597Z,45.30
2023-01-13T07:35:48.302Z,45.20
2023-01-13T07:38:17.644Z,45.20
2023-01-13T07:40:45.638Z,45.30
2023-01-13T07:43:31.364Z,45.30
2023-01-13T07:45:59.684Z,45.20
2023-01-13T07:48:27.705Z,45.20
2023-01-13T07:50:55.798Z,45.20
2023-01-13T07:53:26.173Z,45.20
2023-01-13T07:55:57.083Z,45.30
2023-01-13T07:58:25.099Z,45.80
2023-01-13T08:00:53.120Z,45.20
2023-01-13T08:03:21.399Z,45.20
2023-01-13T08:05:49.392Z,45.20
2023-01-13T08:08:17.379Z,45.20
2023-01-13T08:10:47.025Z,45.20
2023-01-13T08:13:19.719Z,45.20
2023-01-13T08:15:48.723Z,45.20
2023-01-13T08:18:17.678Z,45.20
2023-01-13T08:20:45.634Z,45.20
2023-01-13T08:23:13.764Z,45.20
2023-01-13T08:25:41.738Z,45.20
2023-01-13T08:28:11.076Z,45.20
2023-01-13T08:30:39.107Z,45.20
2023-01-13T08:33:07.749Z,45.20
2023-01-13T08:35:37.078Z,45.20
2023-01-13T08:38:05.453Z,45.10
2023-01-13T08:40:33.475Z,45.00
2023-01-13T08:43:01.566Z,45.00
2023-01-13T08:45:31.083Z,44.90
2023-01-13T08:47:59.682Z,44.80
2023-01-13T08:50:27.659Z,44.80
2023-01-13T08:52:55.669Z,44.60
2023-01-13T08:55:23.645Z,44.60
2023-01-13T08:57:53.083Z,45.10
2023-01-13T09:00:23.048Z,44.30
2023-01-13T09:02:52.373Z,44.30
2023-01-13T09:05:20.520Z,44.30
2023-01-13T09:07:48.853Z,44.10
2023-01-13T09:10:16.913Z,44.00
2023-01-13T09:13:02.805Z,44.00
2023-01-13T09:15:30.854Z,43.90
2023-01-13T09:18:00.458Z,43.80
2023-01-13T09:20:28.568Z,43.80
2023-01-13T09:22:56.496Z,43.80
2023-01-13T09:25:24.488Z,43.60
2023-01-13T09:27:52.672Z,43.70
2023-01-13T09:30:20.733Z,43.50
2023-01-13T09:32:48.750Z,43.40
2023-01-13T09:35:17.769Z,43.40
2023-01-13T09:37:45.860Z,43.30
2023-01-13T09:40:16.676Z,43.30
2023-01-13T09:43:04.114Z,43.20
2023-01-13T09:45:34.171Z,43.20
2023-01-13T09:48:05.648Z,43.30
2023-01-13T09:50:42.485Z,43.20
2023-01-13T09:53:13.923Z,43.20
2023-01-13T09:55:41.920Z,43.20
2023-01-13T09:58:13.823Z,43.20
2023-01-13T10:00:47.081Z,43.20
2023-01-13T10:03:25.796Z,43.00
2023-01-13T10:05:58.939Z,42.90
2023-01-13T10:08:28.608Z,42.90
2023-01-13T10:10:58.196Z,42.80
2023-01-13T10:13:26.663Z,42.70
2023-01-13T10:16:09.223Z,42.50
2023-01-13T10:18:43.552Z,42.50
2023-01-13T10:21:20.755Z,42.40
2023-01-13T10:23:58.262Z,42.40
2023-01-13T10:26:38.859Z,42.30
2023-01-13T10:29:19.218Z,42.30
2023-01-13T10:31:47.496Z,42.40
2023-01-13T10:34:17.080Z,42.30
2023-01-13T10:36:58.128Z,42.20
2023-01-13T10:39:26.099Z,42.30
2023-01-13T10:42:03.518Z,42.30
2023-01-13T10:44:31.504Z,42.40
2023-01-13T10:46:59.980Z,42.40
2023-01-13T10:49:31.361Z,42.40
2023-01-13T10:52:00.894Z,43.10
2023-01-13T10:54:29.061Z,42.50
2023-01-13T10:57:14.721Z,42.50
2023-01-13T10:59:42.761Z,42.50
2023-01-13T11:02:26.490Z,43.20
2023-01-13T11:05:10.722Z,42.60
2023-01-13T11:07:41.433Z,42.60
2023-01-13T11:10:19.425Z,42.60
2023-01-13T11:12:52.712Z,42.60
2023-01-13T11:15:21.753Z,42.70
2023-01-13T11:17:51.896Z,42.60
2023-01-13T11:20:22.018Z,42.70
2023-01-13T11:22:52.998Z,42.70
2023-01-13T11:25:23.089Z,42.80
2023-01-13T11:27:55.538Z,42.70
2023-01-13T11:30:27.481Z,42.80
2023-01-13T11:33:03.312Z,42.80
2023-01-13T11:35:31.410Z,42.80
2023-01-13T11:38:02.962Z,42.70
2023-01-13T11:40:34.722Z,42.80
2023-01-13T11:43:04.820Z,42.80
2023-01-13T11:45:42.484Z,42.80
2023-01-13T11:48:13.648Z,42.80
2023-01-13T11:50:42.567Z,42.70
2023-01-13T11:53:24.434Z,42.80
2023-01-13T11:55:57.388Z,42.80
2023-01-13T11:58:49.741Z,42.80
2023-01-13T12:01:34.346Z,42.90
2023-01-13T12:04:10.732Z,42.90
2023-01-13T12:06:40.226Z,42.80
2023-01-13T12:09:23.869Z,42.90
2023-01-13T12:12:16.313Z,42.90
2023-01-13T12:14:51.955Z,42.90
2023-01-13T12:17:25.167Z,42.90
2023-01-13T12:19:53.154Z,42.90
2023-01-13T12:22:23.052Z,42.90
2023-01-13T12:24:53.520Z,42.90
2023-01-13T12:27:25.666Z,43.00
2023-01-13T12:29:55.659Z,43.00
2023-01-13T12:32:32.290Z,43.00
2023-01-13T12:35:07.663Z,43.00
2023-01-13T12:37:38.481Z,43.00
2023-01-13T12:40:19.744Z,42.90
2023-01-13T12:43:03.657Z,43.00
2023-01-13T12:45:32.160Z,43.00
2023-01-13T12:48:00.405Z,43.00
2023-01-13T12:50:41.787Z,43.00
2023-01-13T12:53:38.623Z,43.10
2023-01-13T12:56:39.970Z,43.10
2023-01-13T12:59:50.606Z,43.10
2023-01-13T13:02:36.526Z,43.10
2023-01-13T13:55:23.994Z,42.20
2023-01-13T13:57:52.721Z,42.90
2023-01-13T14:00:25.194Z,43.10
2023-01-13T14:02:54.519Z,43.10
2023-01-13T14:05:23.997Z,43.10
2023-01-13T14:07:52.954Z,43.10
2023-01-13T14:10:22.191Z,43.00
2023-01-13T14:12:50.140Z,43.20
2023-01-13T14:17:55.860Z,42.60
2023-01-13T14:20:23.867Z,43.10
2023-01-13T14:22:53.573Z,43.20
2023-01-13T14:25:29.428Z,42.60
2023-01-13T14:27:57.659Z,43.20
2023-01-13T14:30:28.048Z,43.20
2023-01-13T14:32:56.129Z,43.10
2023-01-13T14:35:24.403Z,43.10
2023-01-13T14:37:54.440Z,43.10
2023-01-13T14:40:47.103Z,43.20
2023-01-13T14:50:59.154Z,42.40
2023-01-13T14:53:35.363Z,43.00
2023-01-13T14:56:36.880Z,43.10
2023-01-13T14:59:42.534Z,43.30
2023-01-13T15:02:47.084Z,43.30
2023-01-13T15:05:51.568Z,43.20
2023-01-13T15:08:34.605Z,43.30
2023-01-13T15:11:02.973Z,43.30
2023-01-13T15:13:46.986Z,43.30
2023-01-13T15:16:23.135Z,43.30
2023-01-13T15:18:51.310Z,43.30
2023-01-13T15:21:19.576Z,43.40
2023-01-13T15:23:48.939Z,43.40
2023-01-13T15:26:20.152Z,43.40
2023-01-13T15:28:48.188Z,43.40
2023-01-13T15:31:16.268Z,43.40
2023-01-13T15:33:44.558Z,43.40
2023-01-13T15:36:23.644Z,43.30
2023-01-13T15:38:53.210Z,43.50
2023-01-13T15:41:41.799Z,43.30
2023-01-13T15:44:29.500Z,43.40
2023-01-13T15:46:57.536Z,43.40
2023-01-13T15:49:27.746Z,43.40
2023-01-13T15:51:56.163Z,43.40
2023-01-13T15:54:25.541Z,43.40
2023-01-13T15:56:53.481Z,43.40
2023-01-13T15:59:23.029Z,43.40
2023-01-13T16:01:51.128Z,43.40
2023-01-13T16:04:19.139Z,43.40
2023-01-13T16:06:47.566Z,43.40
2023-01-13T16:09:16.879Z,43.40
2023-01-13T16:11:46.339Z,43.50
2023-01-13T16:14:14.597Z,43.50
2023-01-13T16:16:42.660Z,43.50
2023-01-13T16:19:11.811Z,43.50
2023-01-13T16:21:40.589Z,43.40
2023-01-13T16:24:08.632Z,43.40
2023-01-13T16:26:38.899Z,43.40
2023-01-13T16:29:09.828Z,43.50
2023-01-13T16:31:37.922Z,43.50
2023-01-13T16:34:06.331Z,43.50
2023-01-13T16:36:35.810Z,43.50
2023-01-13T16:39:04.161Z,43.50
2023-01-13T16:41:32.139Z,44.10
2023-01-13T16:44:06.257Z,43.50
2023-01-13T16:46:35.724Z,43.50
2023-01-13T16:49:04.736Z,43.50
2023-01-13T16:51:33.311Z,43.60
2023-01-13T16:54:01.313Z,43.60
2023-01-13T16:56:30.501Z,43.60
2023-01-13T16:58:59.373Z,43.60
2023-01-13T17:01:28.806Z,43.50
2023-01-13T17:03:58.807Z,43.50
2023-01-13T17:06:28.981Z,44.20
2023-01-13T17:09:01.619Z,43.60
2023-01-13T17:11:29.632Z,43.60
2023-01-13T17:13:57.821Z,43.70
2023-01-13T17:16:26.220Z,43.70
2023-01-13T17:18:54.651Z,43.70
2023-01-13T17:21:23.987Z,43.70
2023-01-13T17:23:52.587Z,43.70
2023-01-13T17:26:29.044Z,43.70
2023-01-13T17:28:57.055Z,43.60
2023-01-13T17:31:25.108Z,43.60
2023-01-13T17:33:53.222Z,43.60
2023-01-13T17:36:21.226Z,43.70
2023-01-13T17:38:50.624Z,43.60
2023-01-13T17:41:18.931Z,43.70
2023-01-13T17:43:46.972Z,43.70
2023-01-13T17:46:19.391Z,43.70
2023-01-13T17:48:47.447Z,43.70
2023-01-13T17:51:16.499Z,43.70
2023-01-13T17:53:45.770Z,43.70
2023-01-13T17:56:15.626Z,43.70
2023-01-13T17:58:45.397Z,43.80
2023-01-13T18:01:15.161Z,44.30
2023-01-13T18:03:43.301Z,43.80
2023-01-13T18:06:16.036Z,44.40
2023-01-13T18:08:44.040Z,43.80
2023-01-13T18:11:12.031Z,43.80
2023-01-13T18:13:43.087Z,44.40
2023-01-13T18:16:11.775Z,43.70
2023-01-13T18:18:40.129Z,43.70
2023-01-13T18:21:25.906Z,43.70
2023-01-13T18:24:11.442Z,43.80
2023-01-13T18:26:57.063Z,43.80
2023-01-13T18:29:26.419Z,43.80
2023-01-13T18:31:54.406Z,43.80
2023-01-13T18:34:22.435Z,43.80
2023-01-13T18:36:50.424Z,43.80
2023-01-13T18:39:19.014Z,43.80
2023-01-13T18:42:04.812Z,43.90
2023-01-13T18:44:34.141Z,43.90
2023-01-13T18:47:02.119Z,43.90
2023-01-13T18:49:30.348Z,43.90
2023-01-13T18:51:58.298Z,43.90
2023-01-13T18:54:26.266Z,43.90
2023-01-13T18:56:54.563Z,43.90
2023-01-13T18:59:22.566Z,43.90
2023-01-13T19:01:52.008Z,43.90
2023-01-13T19:04:20.381Z,43.90
2023-01-13T19:06:51.399Z,43.90
2023-01-13T19:09:20.077Z,43.90
2023-01-13T19:11:48.019Z,43.90
2023-01-13T19:14:33.975Z,43.90
2023-01-13T19:17:04.570Z,43.80
2023-01-13T19:19:32.672Z,43.80
2023-01-13T19:22:00.626Z,43.90
2023-01-13T19:24:28.621Z,43.90
2023-01-13T19:26:56.592Z,43.90
2023-01-13T19:29:24.854Z,43.90
2023-01-13T19:31:52.850Z,43.90
2023-01-13T19:34:22.913Z,43.90
2023-01-13T19:36:53.219Z,43.90
2023-01-13T19:39:21.238Z,43.90
2023-01-13T19:42:06.714Z,43.90
2023-01-13T19:44:52.010Z,43.90
2023-01-13T19:47:20.429Z,43.90
2023-01-13T19:49:49.772Z,44.00
2023-01-13T19:52:17.744Z,44.00
2023-01-13T19:54:46.234Z,44.00
2023-01-13T19:57:14.245Z,44.00
2023-01-13T19:59:42.381Z,44.00
2023-01-13T20:02:14.732Z,44.00
2023-01-13T20:04:44.856Z,44.10
2023-01-13T20:07:14.776Z,44.00
2023-01-13T20:09:44.327Z,44.00
2023-01-13T20:12:13.128Z,44.00
2023-01-13T20:14:41.113Z,44.00
2023-01-13T20:17:09.168Z,44.00
2023-01-13T20:19:37.154Z,44.10
2023-01-13T20:22:05.388Z,44.10
2023-01-13T20:24:35.005Z,44.10
2023-01-13T20:27:03.642Z,44.10
2023-01-13T20:29:32.075Z,44.10
2023-01-13T20:32:00.321Z,44.10
2023-01-13T20:34:28.286Z,44.00
2023-01-13T20:36:56.583Z,44.10
2023-01-13T20:39:26.015Z,44.70
2023-01-13T20:42:13.115Z,44.10
2023-01-13T20:44:41.166Z,44.10
2023-01-13T20:47:09.148Z,44.10
2023-01-13T20:49:37.182Z,44.10
2023-01-13T20:52:09.414Z,44.80
2023-01-13T20:54:37.907Z,44.10
2023-01-13T20:57:09.619Z,44.10
2023-01-13T20:59:38.111Z,44.10
2023-01-13T21:02:06.555Z,44.10
2023-01-13T21:04:34.488Z,44.10
2023-01-13T21:07:02.638Z,44.20
2023-01-13T21:09:30.846Z,44.20
2023-01-13T21:12:16.409Z,44.20
2023-01-13T21:15:03.063Z,44.20
2023-01-13T21:17:48.771Z,44.20
2023-01-13T21:20:16.921Z,44.20
2023-01-13T21:22:45.684Z,44.20
2023-01-13T21:25:13.961Z,44.20
2023-01-13T21:27:43.806Z,44.20
2023-01-13T21:30:14.980Z,44.20
2023-01-13T21:32:43.147Z,44.20
2023-01-13T21:35:11.212Z,44.20
2023-01-13T21:37:39.243Z,44.90
2023-01-13T21:40:09.081Z,44.30
2023-01-13T21:42:54.945Z,44.30
2023-01-13T21:45:41.647Z,44.30
2023-01-13T21:48:09.970Z,44.20
2023-01-13T21:50:38.334Z,44.20
2023-01-13T21:53:07.846Z,44.20
2023-01-13T21:55:36.998Z,44.30
2023-01-13T21:58:09.830Z,44.20
2023-01-13T22:00:40.077Z,44.20
2023-01-13T22:03:08.658Z,44.20
2023-01-13T22:05:37.538Z,44.20
2023-01-13T22:08:06.144Z,44.30
2023-01-13T22:10:34.325Z,44.20
2023-01-13T22:13:24.322Z,44.30
2023-01-13T22:15:53.685Z,44.20
2023-01-13T22:18:21.670Z,44.20
2023-01-13T22:20:50.046Z,44.30
2023-01-13T22:23:18.150Z,44.30
2023-01-13T22:25:46.119Z,44.20
2023-01-13T22:28:24.101Z,44.30
2023-01-13T22:30:53.525Z,44.30
2023-01-13T22:33:21.546Z,44.20
2023-01-13T22:35:55.756Z,44.30
2023-01-13T22:38:24.228Z,44.30
2023-01-13T22:40:57.980Z,44.90
2023-01-13T22:43:25.931Z,44.30
2023-01-13T22:46:02.125Z,44.30
2023-01-13T22:48:30.364Z,44.30
2023-01-13T22:50:58.415Z,44.30
2023-01-13T22:53:26.680Z,44.30
2023-01-13T22:55:55.534Z,44.30
2023-01-13T22:58:23.487Z,44.90
2023-01-13T23:00:51.614Z,44.30
2023-01-13T23:03:21.000Z,44.20
2023-01-13T23:05:48.946Z,44.30
2023-01-13T23:08:16.940Z,44.30
2023-01-13T23:10:44.886Z,44.90
2023-01-13T23:13:12.869Z,44.30
2023-01-13T23:15:41.095Z,44.20
2023-01-13T23:18:09.070Z,44.30
2023-01-13T23:20:38.491Z,44.30
2023-01-13T23:23:06.463Z,44.30
2023-01-13T23:25:34.451Z,44.20
2023-01-13T23:28:02.424Z,44.30
2023-01-13T23:30:30.392Z,44.10
2023-01-13T23:32:58.383Z,44.00
2023-01-13T23:35:26.409Z,44.00
2023-01-13T23:37:55.769Z,43.90
2023-01-13T23:40:23.726Z,43.80
2023-01-13T23:42:51.976Z,44.30
2023-01-13T23:45:19.893Z,43.70
2023-01-13T23:47:47.835Z,43.60
2023-01-13T23:50:16.284Z,43.50
2023-01-13T23:52:44.240Z,43.40
2023-01-13T23:55:13.556Z,43.40
2023-01-13T23:57:42.600Z,43.30
